createdAt,value
2023-03-23T16:00:18.134Z,34.58
2023-03-23T16:02:43.854Z,34.15
2023-03-23T16:05:09.077Z,34.28
2023-03-23T16:07:35.411Z,41.05
2023-03-23T16:10:00.434Z,35.92
2023-03-23T16:12:25.036Z,36.47
2023-03-23T16:14:49.662Z,43.53
2023-03-23T16:17:21.933Z,41.97
2023-03-23T16:19:46.449Z,41.78
2023-03-23T16:22:11.698Z,35.63
2023-03-23T16:24:38.793Z,44.53
2023-03-23T16:27:05.646Z,37.72
2023-03-23T16:31:58.775Z,41.17
2023-03-23T16:34:23.430Z,45.08
2023-03-23T16:36:47.892Z,43.80
2023-03-23T16:39:13.809Z,39.38
2023-03-23T16:41:41.219Z,41.50
2023-03-23T16:44:06.404Z,44.13
2023-03-23T16:46:32.199Z,46.33
2023-03-23T16:48:56.966Z,45.67
2023-03-23T16:51:21.393Z,43.25
2023-03-23T16:53:46.012Z,41.22
2023-03-23T16:56:10.698Z,44.78
2023-03-23T16:58:36.936Z,49.83
2023-03-23T17:01:05.971Z,46.42
2023-03-23T17:03:31.827Z,47.20
2023-03-23T17:05:56.411Z,47.92
2023-03-23T17:08:21.557Z,46.75
2023-03-23T17:10:46.900Z,47.70
2023-03-23T17:13:12.035Z,44.05
2023-03-23T17:15:40.636Z,43.78
2023-03-23T17:18:06.526Z,44.97
2023-03-23T17:20:34.885Z,50.25
2023-03-23T17:23:02.669Z,48.78
2023-03-23T17:25:27.805Z,42.00
2023-03-23T17:27:52.409Z,48.65
2023-03-23T17:30:18.378Z,50.13
2023-03-23T17:32:47.629Z,50.33
2023-03-23T17:35:12.290Z,49.35
2023-03-23T17:37:38.025Z,47.10
2023-03-23T17:40:03.475Z,52.47
2023-03-23T17:42:28.271Z,52.17
2023-03-23T17:44:58.958Z,55.00
2023-03-23T17:47:23.982Z,53.75
2023-03-23T17:49:49.851Z,56.83
2023-03-23T17:52:14.570Z,53.75
2023-03-23T17:54:39.468Z,55.20
2023-03-23T17:57:05.256Z,64.10
2023-03-23T17:59:30.423Z,56.03
2023-03-23T18:01:55.222Z,56.97
2023-03-23T18:04:20.262Z,55.78
2023-03-23T18:06:47.672Z,53.20
2023-03-23T18:09:12.277Z,58.05
2023-03-23T18:11:36.857Z,54.92
2023-03-23T18:14:03.327Z,54.28
2023-03-23T18:16:28.659Z,67.45
2023-03-23T18:18:56.499Z,59.45
2023-03-23T18:21:24.067Z,66.35
2023-03-23T18:23:58.793Z,60.47
2023-03-23T18:26:24.680Z,60.45
2023-03-23T18:28:50.623Z,58.13
2023-03-23T18:31:17.174Z,60.72
2023-03-23T18:33:44.973Z,51.97
2023-03-23T18:36:10.658Z,61.75
2023-03-23T18:38:38.122Z,58.67
2023-03-23T18:41:07.815Z,62.72
2023-03-23T18:43:32.405Z,63.88
2023-03-23T18:45:59.972Z,57.38
2023-03-23T18:48:25.390Z,64.63
2023-03-23T18:50:50.436Z,53.95
2023-03-23T18:53:16.107Z,62.55
2023-03-23T18:55:40.830Z,59.97
2023-03-23T18:58:06.835Z,63.17
2023-03-23T19:00:33.861Z,65.90
2023-03-23T19:03:00.902Z,65.88
2023-03-23T19:05:25.750Z,69.35
2023-03-23T19:07:53.198Z,67.95
2023-03-23T19:10:18.296Z,69.60
2023-03-23T19:12:47.230Z,66.80
2023-03-23T19:15:15.215Z,68.35
2023-03-23T19:17:39.947Z,66.88
2023-03-23T19:20:13.599Z,69.75
2023-03-23T19:22:41.878Z,66.32
2023-03-23T19:25:08.244Z,65.15
2023-03-23T19:27:32.813Z,63.25
2023-03-23T19:30:00.488Z,63.60
2023-03-23T19:32:26.441Z,66.63
2023-03-23T19:34:51.514Z,67.60
2023-03-23T19:37:19.297Z,66.32
2023-03-23T19:39:44.563Z,66.35
2023-03-23T19:42:09.773Z,64.25
2023-03-23T19:44:34.928Z,67.60
2023-03-23T19:46:59.911Z,62.70
2023-03-23T19:49:26.220Z,66.82
2023-03-23T19:51:52.569Z,65.45
2023-03-23T19:54:37.054Z,68.85
2023-03-23T19:57:02.354Z,62.33
2023-03-23T19:59:26.815Z,72.95
2023-03-23T20:01:51.844Z,68.40
2023-03-23T20:04:19.816Z,64.32
2023-03-23T20:06:46.328Z,64.38
2023-03-23T20:09:10.869Z,63.97
2023-03-23T20:11:40.358Z,70.53
2023-03-23T20:14:05.689Z,69.63
2023-03-23T20:16:32.941Z,70.45
2023-03-23T20:19:00.114Z,74.55
2023-03-23T20:21:25.932Z,71.95
2023-03-23T20:23:56.337Z,73.75
2023-03-23T20:26:25.922Z,69.70
2023-03-23T20:28:52.335Z,72.65
2023-03-23T20:31:23.918Z,63.40
2023-03-23T20:34:01.108Z,67.25
2023-03-23T20:36:29.859Z,75.25
2023-03-23T20:39:10.035Z,64.30
2023-03-23T20:41:36.311Z,70.13
2023-03-23T20:44:00.930Z,64.18
2023-03-23T20:46:31.119Z,63.65
2023-03-23T20:48:58.144Z,72.13
2023-03-23T20:51:22.784Z,64.40
2023-03-23T20:53:48.590Z,65.70
2023-03-23T20:56:14.483Z,63.95
2023-03-23T20:58:43.191Z,65.90
2023-03-23T21:01:10.893Z,68.72
2023-03-23T21:03:40.345Z,61.42
2023-03-23T21:06:08.793Z,72.53
2023-03-23T21:08:38.046Z,70.40
2023-03-23T21:11:03.017Z,67.35
2023-03-23T21:13:43.101Z,64.25
2023-03-23T21:16:10.804Z,67.32
2023-03-23T21:18:36.856Z,74.63
2023-03-23T21:21:11.318Z,64.75
2023-03-23T21:23:35.986Z,70.13
2023-03-23T21:26:02.529Z,72.20
2023-03-23T21:28:28.541Z,69.07
2023-03-23T21:30:54.727Z,69.47
2023-03-23T21:33:20.128Z,68.82
2023-03-23T21:35:45.042Z,67.78
2023-03-23T21:38:14.243Z,69.53
2023-03-23T21:40:38.689Z,64.67
2023-03-23T21:43:03.239Z,66.47
2023-03-23T21:45:29.038Z,64.07
2023-03-23T21:47:57.182Z,63.53
2023-03-23T21:50:22.267Z,59.97
2023-03-23T21:52:51.000Z,63.20
2023-03-23T21:55:16.790Z,62.53
2023-03-23T21:57:42.473Z,61.53
2023-03-23T22:00:13.901Z,60.08
2023-03-23T22:02:39.165Z,59.88
2023-03-23T22:05:05.407Z,60.65
2023-03-23T22:07:31.536Z,94.45
2023-03-23T22:09:56.650Z,72.70
2023-03-23T22:12:21.809Z,72.40
2023-03-23T22:14:46.656Z,62.30
2023-03-23T22:17:11.838Z,62.03
2023-03-23T22:19:36.730Z,60.40
2023-03-23T22:22:04.088Z,61.47
2023-03-23T22:24:32.033Z,61.83
2023-03-23T22:26:56.632Z,61.63
2023-03-23T22:29:21.610Z,62.35
2023-03-23T22:31:46.881Z,61.15
2023-03-23T22:34:12.534Z,61.35
2023-03-23T22:36:37.210Z,60.50
2023-03-23T22:39:04.032Z,52.72
2023-03-23T22:41:30.559Z,60.58
2023-03-23T22:43:55.456Z,62.58
2023-03-23T22:46:20.660Z,61.53
2023-03-23T22:48:45.820Z,62.65
2023-03-23T22:51:11.240Z,69.43
2023-03-23T22:53:35.886Z,68.90
2023-03-23T22:56:01.946Z,60.53
2023-03-23T22:58:27.493Z,67.45
2023-03-23T23:00:58.251Z,63.20
2023-03-23T23:03:24.939Z,63.95
2023-03-23T23:05:51.994Z,65.60
2023-03-23T23:08:18.165Z,63.15
2023-03-23T23:10:44.739Z,66.28
2023-03-23T23:13:12.053Z,61.10
2023-03-23T23:15:37.200Z,62.53
2023-03-23T23:18:01.945Z,64.28
2023-03-23T23:20:26.532Z,60.30
2023-03-23T23:22:52.406Z,65.40
2023-03-23T23:25:17.284Z,63.08
2023-03-23T23:27:41.904Z,58.80
2023-03-23T23:30:10.075Z,60.10
2023-03-23T23:32:37.072Z,60.67
2023-03-23T23:35:06.469Z,66.28
2023-03-23T23:37:31.107Z,62.25
2023-03-23T23:40:16.514Z,62.97
2023-03-23T23:42:41.091Z,63.13
2023-03-23T23:45:10.328Z,65.13
2023-03-23T23:47:35.128Z,65.85
2023-03-23T23:49:59.650Z,65.90
2023-03-23T23:52:29.813Z,63.88
2023-03-23T23:54:54.432Z,59.65
2023-03-23T23:57:19.071Z,60.70
2023-03-23T23:59:46.204Z,60.30
